Dexter, Mississippi
Current Conditions -  °F | °C
As of 5:53 AM on Friday 19 Dec 2014 (Local Time) from KMCB Reporting Station
Heavy Rain Heavy Rain  
Wind Chill: 50°   Ceiling: 1300
Heat Index: 50°   Visibility: 3mi
Dew Point: 47°   Wind: 9mph
Humidity: 89%   Direction: 80°E
Pressure: 30.12"   Gusts: NA
Location:  31.1485°N, 90.1061°W
Report Text: KMCB 191153Z AUTO 08008KT 3SM +RA BR BKN013 OVC025 10/08 A3012 RMK AO2 LTG DSNT S AND SW RAB12 SLP199 P0007 60007 70033 T01000083 10111 20100 53012 $
Loading
Personal Weather Stations






























Interactive Weather Map New forecast layout! Learn more

10-Day Weather Forecast

Advertisements
Track Severe Weather on mobile